sensor_id;sensor_type;location;lat;lon;timestamp;temperature;humidity
51613;DHT22;37694;51.748;14.326;2023-04-15T00:02:00;22.90;41.70
51613;DHT22;37694;51.748;14.326;2023-04-15T00:04:28;22.90;41.90
51613;DHT22;37694;51.748;14.326;2023-04-15T00:06:56;22.90;41.80
51613;DHT22;37694;51.748;14.326;2023-04-15T00:09:21;22.90;41.80
51613;DHT22;37694;51.748;14.326;2023-04-15T00:11:47;22.90;42.60
51613;DHT22;37694;51.748;14.326;2023-04-15T00:14:14;22.90;41.90
51613;DHT22;37694;51.748;14.326;2023-04-15T00:16:40;22.90;41.90
51613;DHT22;37694;51.748;14.326;2023-04-15T00:19:06;22.90;41.80
51613;DHT22;37694;51.748;14.326;2023-04-15T00:21:32;22.90;41.80
51613;DHT22;37694;51.748;14.326;2023-04-15T00:23:57;22.90;41.80
51613;DHT22;37694;51.748;14.326;2023-04-15T00:26:23;22.90;42.00
51613;DHT22;37694;51.748;14.326;2023-04-15T00:28:49;22.80;41.80
51613;DHT22;37694;51.748;14.326;2023-04-15T00:31:14;22.80;41.80
51613;DHT22;37694;51.748;14.326;2023-04-15T00:33:40;22.80;41.80
51613;DHT22;37694;51.748;14.326;2023-04-15T00:36:06;22.80;41.90
51613;DHT22;37694;51.748;14.326;2023-04-15T00:38:32;22.80;41.90
51613;DHT22;37694;51.748;14.326;2023-04-15T00:40:58;22.80;41.90
51613;DHT22;37694;51.748;14.326;2023-04-15T00:43:24;22.80;42.00
51613;DHT22;37694;51.748;14.326;2023-04-15T00:45:52;22.80;41.90
51613;DHT22;37694;51.748;14.326;2023-04-15T00:48:19;22.80;41.90
51613;DHT22;37694;51.748;14.326;2023-04-15T00:50:45;22.80;41.90
51613;DHT22;37694;51.748;14.326;2023-04-15T00:53:11;22.80;41.90
51613;DHT22;37694;51.748;14.326;2023-04-15T00:55:37;22.70;41.80
51613;DHT22;37694;51.748;14.326;2023-04-15T00:58:02;22.70;41.80
51613;DHT22;37694;51.748;14.326;2023-04-15T01:00:29;22.70;41.90
51613;DHT22;37694;51.748;14.326;2023-04-15T01:02:55;22.70;41.90
51613;DHT22;37694;51.748;14.326;2023-04-15T01:05:21;22.70;41.90
51613;DHT22;37694;51.748;14.326;2023-04-15T01:07:47;22.70;41.90
51613;DHT22;37694;51.748;14.326;2023-04-15T01:10:13;22.70;41.90
51613;DHT22;37694;51.748;14.326;2023-04-15T01:12:39;22.70;41.90
51613;DHT22;37694;51.748;14.326;2023-04-15T01:15:05;22.70;42.00
51613;DHT22;37694;51.748;14.326;2023-04-15T01:17:31;22.70;42.00
51613;DHT22;37694;51.748;14.326;2023-04-15T01:19:57;22.70;42.00
51613;DHT22;37694;51.748;14.326;2023-04-15T01:22:24;22.70;42.00
51613;DHT22;37694;51.748;14.326;2023-04-15T01:25:00;22.70;41.90
51613;DHT22;37694;51.748;14.326;2023-04-15T01:27:31;22.70;42.00
51613;DHT22;37694;51.748;14.326;2023-04-15T01:29:57;22.70;42.00
51613;DHT22;37694;51.748;14.326;2023-04-15T01:32:23;22.70;42.00
51613;DHT22;37694;51.748;14.326;2023-04-15T01:34:48;22.70;42.00
51613;DHT22;37694;51.748;14.326;2023-04-15T01:37:14;22.70;42.10
51613;DHT22;37694;51.748;14.326;2023-04-15T01:39:40;22.70;42.00
51613;DHT22;37694;51.748;14.326;2023-04-15T01:42:05;22.60;42.00
51613;DHT22;37694;51.748;14.326;2023-04-15T01:44:31;22.60;42.00
51613;DHT22;37694;51.748;14.326;2023-04-15T01:46:57;22.60;42.10
51613;DHT22;37694;51.748;14.326;2023-04-15T01:49:23;22.60;42.00
51613;DHT22;37694;51.748;14.326;2023-04-15T01:51:49;22.60;42.00
51613;DHT22;37694;51.748;14.326;2023-04-15T01:54:14;22.60;42.00
51613;DHT22;37694;51.748;14.326;2023-04-15T01:56:40;22.60;42.00
51613;DHT22;37694;51.748;14.326;2023-04-15T01:59:06;22.60;42.00
51613;DHT22;37694;51.748;14.326;2023-04-15T02:01:32;22.60;42.10
51613;DHT22;37694;51.748;14.326;2023-04-15T02:03:58;22.60;42.00
51613;DHT22;37694;51.748;14.326;2023-04-15T02:06:23;22.60;42.00
51613;DHT22;37694;51.748;14.326;2023-04-15T02:08:49;22.60;42.10
51613;DHT22;37694;51.748;14.326;2023-04-15T02:11:15;22.60;42.10
51613;DHT22;37694;51.748;14.326;2023-04-15T02:13:41;22.60;42.10
51613;DHT22;37694;51.748;14.326;2023-04-15T02:16:17;22.60;42.00
51613;DHT22;37694;51.748;14.326;2023-04-15T02:18:46;22.60;42.10
51613;DHT22;37694;51.748;14.326;2023-04-15T02:21:12;22.60;42.20
51613;DHT22;37694;51.748;14.326;2023-04-15T02:23:37;22.50;42.10
51613;DHT22;37694;51.748;14.326;2023-04-15T02:26:03;22.60;42.10
51613;DHT22;37694;51.748;14.326;2023-04-15T02:28:29;22.60;42.30
51613;DHT22;37694;51.748;14.326;2023-04-15T02:30:54;22.50;42.30
51613;DHT22;37694;51.748;14.326;2023-04-15T02:33:22;22.50;42.20
51613;DHT22;37694;51.748;14.326;2023-04-15T02:35:47;22.50;42.30
51613;DHT22;37694;51.748;14.326;2023-04-15T02:38:13;22.50;42.20
51613;DHT22;37694;51.748;14.326;2023-04-15T02:40:41;22.50;42.20
51613;DHT22;37694;51.748;14.326;2023-04-15T02:43:07;22.50;42.20
51613;DHT22;37694;51.748;14.326;2023-04-15T02:45:32;22.50;42.20
51613;DHT22;37694;51.748;14.326;2023-04-15T02:47:58;22.50;42.30
51613;DHT22;37694;51.748;14.326;2023-04-15T02:50:25;22.50;42.20
51613;DHT22;37694;51.748;14.326;2023-04-15T02:52:51;22.50;42.20
51613;DHT22;37694;51.748;14.326;2023-04-15T02:55:17;22.50;42.20
51613;DHT22;37694;51.748;14.326;2023-04-15T02:57:43;22.50;42.30
51613;DHT22;37694;51.748;14.326;2023-04-15T03:00:09;22.50;42.40
51613;DHT22;37694;51.748;14.326;2023-04-15T03:02:39;22.50;42.40
51613;DHT22;37694;51.748;14.326;2023-04-15T03:05:09;22.50;42.40
51613;DHT22;37694;51.748;14.326;2023-04-15T03:07:36;22.50;42.30
51613;DHT22;37694;51.748;14.326;2023-04-15T03:10:01;22.50;42.40
51613;DHT22;37694;51.748;14.326;2023-04-15T03:12:27;22.50;42.40
51613;DHT22;37694;51.748;14.326;2023-04-15T03:14:53;22.50;42.40
51613;DHT22;37694;51.748;14.326;2023-04-15T03:17:19;22.50;42.50
51613;DHT22;37694;51.748;14.326;2023-04-15T03:19:45;22.40;42.50
51613;DHT22;37694;51.748;14.326;2023-04-15T03:22:10;22.50;42.40
51613;DHT22;37694;51.748;14.326;2023-04-15T03:24:36;22.40;42.50
51613;DHT22;37694;51.748;14.326;2023-04-15T03:27:02;22.40;42.40
51613;DHT22;37694;51.748;14.326;2023-04-15T03:29:27;22.50;42.50
51613;DHT22;37694;51.748;14.326;2023-04-15T03:31:53;22.40;42.40
51613;DHT22;37694;51.748;14.326;2023-04-15T03:34:19;22.40;42.40
51613;DHT22;37694;51.748;14.326;2023-04-15T03:36:45;22.40;42.50
51613;DHT22;37694;51.748;14.326;2023-04-15T03:39:11;22.40;42.50
51613;DHT22;37694;51.748;14.326;2023-04-15T03:41:37;22.40;42.50
51613;DHT22;37694;51.748;14.326;2023-04-15T03:44:03;22.40;42.40
51613;DHT22;37694;51.748;14.326;2023-04-15T03:46:28;22.40;42.40
51613;DHT22;37694;51.748;14.326;2023-04-15T03:48:54;22.40;42.50
51613;DHT22;37694;51.748;14.326;2023-04-15T03:51:20;22.40;42.50
51613;DHT22;37694;51.748;14.326;2023-04-15T03:53:45;22.40;42.50
51613;DHT22;37694;51.748;14.326;2023-04-15T03:56:11;22.40;42.50
51613;DHT22;37694;51.748;14.326;2023-04-15T03:58:37;22.40;42.50
51613;DHT22;37694;51.748;14.326;2023-04-15T04:01:02;22.40;42.50
51613;DHT22;37694;51.748;14.326;2023-04-15T04:03:28;22.40;42.60
51613;DHT22;37694;51.748;14.326;2023-04-15T04:05:54;22.40;42.50
51613;DHT22;37694;51.748;14.326;2023-04-15T04:08:20;22.40;42.50
51613;DHT22;37694;51.748;14.326;2023-04-15T04:10:46;22.40;42.70
51613;DHT22;37694;51.748;14.326;2023-04-15T04:13:12;22.40;42.70
51613;DHT22;37694;51.748;14.326;2023-04-15T04:15:37;22.30;43.30
51613;DHT22;37694;51.748;14.326;2023-04-15T04:18:03;22.30;42.50
51613;DHT22;37694;51.748;14.326;2023-04-15T04:20:29;22.30;42.50
51613;DHT22;37694;51.748;14.326;2023-04-15T04:22:56;22.30;42.50
51613;DHT22;37694;51.748;14.326;2023-04-15T04:25:22;22.30;42.70
51613;DHT22;37694;51.748;14.326;2023-04-15T04:27:49;22.30;42.60
51613;DHT22;37694;51.748;14.326;2023-04-15T04:30:14;22.30;42.60
51613;DHT22;37694;51.748;14.326;2023-04-15T04:32:40;22.30;42.50
51613;DHT22;37694;51.748;14.326;2023-04-15T04:35:06;22.30;42.60
51613;DHT22;37694;51.748;14.326;2023-04-15T04:37:32;22.30;42.60
51613;DHT22;37694;51.748;14.326;2023-04-15T04:39:58;22.30;42.50
51613;DHT22;37694;51.748;14.326;2023-04-15T04:42:23;22.30;42.60
51613;DHT22;37694;51.748;14.326;2023-04-15T04:44:49;22.30;42.60
51613;DHT22;37694;51.748;14.326;2023-04-15T04:47:15;22.30;42.70
51613;DHT22;37694;51.748;14.326;2023-04-15T04:49:40;22.30;42.70
51613;DHT22;37694;51.748;14.326;2023-04-15T04:52:06;22.30;42.70
51613;DHT22;37694;51.748;14.326;2023-04-15T04:54:32;22.30;42.80
51613;DHT22;37694;51.748;14.326;2023-04-15T04:56:58;22.30;42.80
51613;DHT22;37694;51.748;14.326;2023-04-15T04:59:23;22.30;42.80
51613;DHT22;37694;51.748;14.326;2023-04-15T05:01:49;22.30;43.00
51613;DHT22;37694;51.748;14.326;2023-04-15T05:04:15;22.30;43.00
51613;DHT22;37694;51.748;14.326;2023-04-15T05:06:41;22.30;43.10
51613;DHT22;37694;51.748;14.326;2023-04-15T05:09:06;22.30;43.10
51613;DHT22;37694;51.748;14.326;2023-04-15T05:11:32;22.30;43.20
51613;DHT22;37694;51.748;14.326;2023-04-15T05:13:58;22.30;43.10
51613;DHT22;37694;51.748;14.326;2023-04-15T05:16:27;22.30;43.30
51613;DHT22;37694;51.748;14.326;2023-04-15T05:18:52;22.30;43.40
51613;DHT22;37694;51.748;14.326;2023-04-15T05:21:19;22.30;43.30
51613;DHT22;37694;51.748;14.326;2023-04-15T05:23:45;22.30;43.20
51613;DHT22;37694;51.748;14.326;2023-04-15T05:26:10;22.30;43.20
51613;DHT22;37694;51.748;14.326;2023-04-15T05:28:36;22.30;43.30
51613;DHT22;37694;51.748;14.326;2023-04-15T05:31:02;22.30;43.30
51613;DHT22;37694;51.748;14.326;2023-04-15T05:33:28;22.30;43.40
51613;DHT22;37694;51.748;14.326;2023-04-15T05:35:53;22.30;43.50
51613;DHT22;37694;51.748;14.326;2023-04-15T05:38:19;22.30;43.60
51613;DHT22;37694;51.748;14.326;2023-04-15T05:40:45;22.30;43.70
51613;DHT22;37694;51.748;14.326;2023-04-15T05:43:11;22.30;43.70
51613;DHT22;37694;51.748;14.326;2023-04-15T05:45:37;22.40;43.80
51613;DHT22;37694;51.748;14.326;2023-04-15T05:48:02;22.40;43.80
51613;DHT22;37694;51.748;14.326;2023-04-15T05:50:28;22.50;44.10
51613;DHT22;37694;51.748;14.326;2023-04-15T05:52:54;22.60;44.10
51613;DHT22;37694;51.748;14.326;2023-04-15T05:55:20;22.60;44.10
51613;DHT22;37694;51.748;14.326;2023-04-15T05:57:46;22.70;44.10
51613;DHT22;37694;51.748;14.326;2023-04-15T06:00:12;22.80;44.20
51613;DHT22;37694;51.748;14.326;2023-04-15T06:02:38;22.80;44.00
51613;DHT22;37694;51.748;14.326;2023-04-15T06:05:04;22.90;44.70
51613;DHT22;37694;51.748;14.326;2023-04-15T06:07:36;23.00;43.80
51613;DHT22;37694;51.748;14.326;2023-04-15T06:10:02;23.00;43.70
51613;DHT22;37694;51.748;14.326;2023-04-15T06:12:28;23.10;43.60
51613;DHT22;37694;51.748;14.326;2023-04-15T06:14:54;23.20;43.50
51613;DHT22;37694;51.748;14.326;2023-04-15T06:17:20;23.20;43.50
51613;DHT22;37694;51.748;14.326;2023-04-15T06:19:45;23.20;43.50
51613;DHT22;37694;51.748;14.326;2023-04-15T06:22:11;23.30;43.40
51613;DHT22;37694;51.748;14.326;2023-04-15T06:24:36;23.30;43.30
51613;DHT22;37694;51.748;14.326;2023-04-15T06:27:02;23.40;43.20
51613;DHT22;37694;51.748;14.326;2023-04-15T06:29:28;23.40;43.10
51613;DHT22;37694;51.748;14.326;2023-04-15T06:31:54;23.50;43.10
51613;DHT22;37694;51.748;14.326;2023-04-15T06:34:21;23.60;43.10
51613;DHT22;37694;51.748;14.326;2023-04-15T06:36:46;23.60;43.10
51613;DHT22;37694;51.748;14.326;2023-04-15T06:39:12;23.60;42.90
51613;DHT22;37694;51.748;14.326;2023-04-15T06:41:38;23.70;42.90
51613;DHT22;37694;51.748;14.326;2023-04-15T06:44:04;23.70;42.80
51613;DHT22;37694;51.748;14.326;2023-04-15T06:46:30;23.80;42.70
51613;DHT22;37694;51.748;14.326;2023-04-15T06:48:55;23.80;42.70
51613;DHT22;37694;51.748;14.326;2023-04-15T06:51:21;23.80;42.70
51613;DHT22;37694;51.748;14.326;2023-04-15T06:53:48;23.80;42.50
51613;DHT22;37694;51.748;14.326;2023-04-15T06:56:14;23.90;42.50
51613;DHT22;37694;51.748;14.326;2023-04-15T06:58:40;23.90;42.50
51613;DHT22;37694;51.748;14.326;2023-04-15T07:01:05;23.90;42.50
51613;DHT22;37694;51.748;14.326;2023-04-15T07:03:31;23.90;42.50
51613;DHT22;37694;51.748;14.326;2023-04-15T07:05:57;23.90;42.50
51613;DHT22;37694;51.748;14.326;2023-04-15T07:08:23;23.90;42.60
51613;DHT22;37694;51.748;14.326;2023-04-15T07:10:49;23.90;42.80
51613;DHT22;37694;51.748;14.326;2023-04-15T07:13:14;23.90;42.80
51613;DHT22;37694;51.748;14.326;2023-04-15T07:15:41;23.90;42.90
51613;DHT22;37694;51.748;14.326;2023-04-15T07:18:07;23.90;43.10
51613;DHT22;37694;51.748;14.326;2023-04-15T07:20:34;23.90;43.40
51613;DHT22;37694;51.748;14.326;2023-04-15T07:23:00;23.80;43.70
51613;DHT22;37694;51.748;14.326;2023-04-15T07:25:25;23.90;43.40
51613;DHT22;37694;51.748;14.326;2023-04-15T07:27:52;23.90;43.30
51613;DHT22;37694;51.748;14.326;2023-04-15T07:30:18;23.90;43.20
51613;DHT22;37694;51.748;14.326;2023-04-15T07:32:44;23.90;43.20
51613;DHT22;37694;51.748;14.326;2023-04-15T07:35:10;23.90;43.40
51613;DHT22;37694;51.748;14.326;2023-04-15T07:37:36;23.90;43.40
51613;DHT22;37694;51.748;14.326;2023-04-15T07:40:02;23.90;43.50
51613;DHT22;37694;51.748;14.326;2023-04-15T07:42:32;23.90;43.60
51613;DHT22;37694;51.748;14.326;2023-04-15T07:44:58;23.90;43.50
51613;DHT22;37694;51.748;14.326;2023-04-15T07:47:24;23.90;43.40
51613;DHT22;37694;51.748;14.326;2023-04-15T07:49:50;23.90;43.50
51613;DHT22;37694;51.748;14.326;2023-04-15T07:52:16;23.90;43.40
51613;DHT22;37694;51.748;14.326;2023-04-15T07:54:41;23.90;43.30
51613;DHT22;37694;51.748;14.326;2023-04-15T07:57:07;23.90;43.30
51613;DHT22;37694;51.748;14.326;2023-04-15T07:59:33;23.90;43.30
51613;DHT22;37694;51.748;14.326;2023-04-15T08:01:58;23.90;43.60
51613;DHT22;37694;51.748;14.326;2023-04-15T08:04:24;23.90;44.00
51613;DHT22;37694;51.748;14.326;2023-04-15T08:06:50;23.80;44.60
51613;DHT22;37694;51.748;14.326;2023-04-15T08:09:16;23.80;44.20
51613;DHT22;37694;51.748;14.326;2023-04-15T08:11:42;23.70;44.00
51613;DHT22;37694;51.748;14.326;2023-04-15T08:14:08;23.80;43.40
51613;DHT22;37694;51.748;14.326;2023-04-15T08:16:34;23.70;43.40
51613;DHT22;37694;51.748;14.326;2023-04-15T08:18:59;23.70;43.70
51613;DHT22;37694;51.748;14.326;2023-04-15T08:21:25;23.70;43.60
51613;DHT22;37694;51.748;14.326;2023-04-15T08:23:52;23.70;43.60
51613;DHT22;37694;51.748;14.326;2023-04-15T08:26:19;23.70;43.70
51613;DHT22;37694;51.748;14.326;2023-04-15T08:28:46;23.60;43.90
51613;DHT22;37694;51.748;14.326;2023-04-15T08:31:15;23.60;43.80
51613;DHT22;37694;51.748;14.326;2023-04-15T08:33:41;23.60;44.10
51613;DHT22;37694;51.748;14.326;2023-04-15T08:36:07;23.60;44.60
51613;DHT22;37694;51.748;14.326;2023-04-15T08:38:34;23.60;43.80
51613;DHT22;37694;51.748;14.326;2023-04-15T08:41:17;23.60;43.80
51613;DHT22;37694;51.748;14.326;2023-04-15T08:43:48;23.50;43.50
51613;DHT22;37694;51.748;14.326;2023-04-15T08:46:16;23.60;43.40
51613;DHT22;37694;51.748;14.326;2023-04-15T08:48:42;23.50;43.70
51613;DHT22;37694;51.748;14.326;2023-04-15T08:51:08;23.50;43.50
51613;DHT22;37694;51.748;14.326;2023-04-15T08:53:34;23.50;43.60
51613;DHT22;37694;51.748;14.326;2023-04-15T08:56:04;23.50;43.50
51613;DHT22;37694;51.748;14.326;2023-04-15T08:58:32;23.50;43.50
51613;DHT22;37694;51.748;14.326;2023-04-15T09:00:58;23.50;43.60
51613;DHT22;37694;51.748;14.326;2023-04-15T09:03:24;23.40;43.40
51613;DHT22;37694;51.748;14.326;2023-04-15T09:05:51;23.40;43.40
51613;DHT22;37694;51.748;14.326;2023-04-15T09:08:17;23.40;43.50
51613;DHT22;37694;51.748;14.326;2023-04-15T09:10:42;23.40;43.40
51613;DHT22;37694;51.748;14.326;2023-04-15T09:13:08;23.40;43.40
51613;DHT22;37694;51.748;14.326;2023-04-15T09:15:37;23.40;43.40
51613;DHT22;37694;51.748;14.326;2023-04-15T09:18:03;23.40;43.40
51613;DHT22;37694;51.748;14.326;2023-04-15T09:20:32;23.40;43.50
51613;DHT22;37694;51.748;14.326;2023-04-15T09:23:12;23.40;43.30
51613;DHT22;37694;51.748;14.326;2023-04-15T09:25:39;23.40;43.20
51613;DHT22;37694;51.748;14.326;2023-04-15T09:28:07;23.40;43.40
51613;DHT22;37694;51.748;14.326;2023-04-15T09:30:33;23.40;43.40
51613;DHT22;37694;51.748;14.326;2023-04-15T09:33:01;23.40;43.40
51613;DHT22;37694;51.748;14.326;2023-04-15T09:35:27;23.40;43.30
51613;DHT22;37694;51.748;14.326;2023-04-15T09:38:02;23.40;43.40
51613;DHT22;37694;51.748;14.326;2023-04-15T09:40:38;23.30;43.30
51613;DHT22;37694;51.748;14.326;2023-04-15T09:43:04;23.30;43.30
51613;DHT22;37694;51.748;14.326;2023-04-15T09:45:32;23.30;43.30
51613;DHT22;37694;51.748;14.326;2023-04-15T09:47:59;23.30;43.30
51613;DHT22;37694;51.748;14.326;2023-04-15T09:50:42;23.30;44.10
51613;DHT22;37694;51.748;14.326;2023-04-15T09:53:09;23.30;43.30
51613;DHT22;37694;51.748;14.326;2023-04-15T09:55:38;23.30;43.20
51613;DHT22;37694;51.748;14.326;2023-04-15T09:58:20;23.30;43.30
51613;DHT22;37694;51.748;14.326;2023-04-15T10:00:50;23.30;43.20
51613;DHT22;37694;51.748;14.326;2023-04-15T10:03:19;23.30;43.20
51613;DHT22;37694;51.748;14.326;2023-04-15T10:05:47;23.30;43.30
51613;DHT22;37694;51.748;14.326;2023-04-15T10:08:16;23.30;43.40
51613;DHT22;37694;51.748;14.326;2023-04-15T10:10:43;23.30;43.30
51613;DHT22;37694;51.748;14.326;2023-04-15T10:13:09;23.30;43.30
51613;DHT22;37694;51.748;14.326;2023-04-15T10:15:35;23.30;43.40
51613;DHT22;37694;51.748;14.326;2023-04-15T10:18:04;23.20;43.10
51613;DHT22;37694;51.748;14.326;2023-04-15T10:20:30;23.30;43.20
51613;DHT22;37694;51.748;14.326;2023-04-15T10:22:55;23.20;43.20
51613;DHT22;37694;51.748;14.326;2023-04-15T10:25:22;23.20;43.10
51613;DHT22;37694;51.748;14.326;2023-04-15T10:27:49;23.20;43.20
51613;DHT22;37694;51.748;14.326;2023-04-15T10:30:17;23.30;43.20
51613;DHT22;37694;51.748;14.326;2023-04-15T10:32:44;23.20;43.10
51613;DHT22;37694;51.748;14.326;2023-04-15T10:35:10;23.20;43.10
51613;DHT22;37694;51.748;14.326;2023-04-15T10:37:37;23.20;43.20
51613;DHT22;37694;51.748;14.326;2023-04-15T10:40:28;23.20;43.10
51613;DHT22;37694;51.748;14.326;2023-04-15T10:43:00;23.20;43.40
51613;DHT22;37694;51.748;14.326;2023-04-15T10:45:28;23.20;43.20
51613;DHT22;37694;51.748;14.326;2023-04-15T10:47:57;23.10;43.10
51613;DHT22;37694;51.748;14.326;2023-04-15T10:50:26;23.20;43.10
51613;DHT22;37694;51.748;14.326;2023-04-15T10:52:53;23.20;43.10
51613;DHT22;37694;51.748;14.326;2023-04-15T10:55:21;23.20;43.10
51613;DHT22;37694;51.748;14.326;2023-04-15T10:57:53;23.20;43.10
51613;DHT22;37694;51.748;14.326;2023-04-15T11:00:24;23.20;43.10
51613;DHT22;37694;51.748;14.326;2023-04-15T11:03:06;23.20;43.00
51613;DHT22;37694;51.748;14.326;2023-04-15T11:08:08;23.20;42.90
51613;DHT22;37694;51.748;14.326;2023-04-15T11:13:06;23.20;43.00
51613;DHT22;37694;51.748;14.326;2023-04-15T11:15:41;23.30;42.90
51613;DHT22;37694;51.748;14.326;2023-04-15T11:18:17;23.20;42.90
51613;DHT22;37694;51.748;14.326;2023-04-15T11:20:45;23.30;42.80
51613;DHT22;37694;51.748;14.326;2023-04-15T11:23:14;23.30;42.80
51613;DHT22;37694;51.748;14.326;2023-04-15T11:25:40;23.30;43.00
51613;DHT22;37694;51.748;14.326;2023-04-15T11:28:07;23.20;42.80
51613;DHT22;37694;51.748;14.326;2023-04-15T11:30:34;23.30;42.80
51613;DHT22;37694;51.748;14.326;2023-04-15T11:33:03;23.20;42.70
51613;DHT22;37694;51.748;14.326;2023-04-15T11:35:29;23.20;42.70
51613;DHT22;37694;51.748;14.326;2023-04-15T11:37:56;23.20;42.80
51613;DHT22;37694;51.748;14.326;2023-04-15T11:40:25;23.20;42.80
51613;DHT22;37694;51.748;14.326;2023-04-15T11:45:29;23.20;42.80
51613;DHT22;37694;51.748;14.326;2023-04-15T11:48:04;23.20;42.90
51613;DHT22;37694;51.748;14.326;2023-04-15T11:50:30;23.20;42.90
51613;DHT22;37694;51.748;14.326;2023-04-15T11:52:57;23.10;42.80
51613;DHT22;37694;51.748;14.326;2023-04-15T11:55:24;23.10;42.90
51613;DHT22;37694;51.748;14.326;2023-04-15T11:58:13;23.10;42.90
51613;DHT22;37694;51.748;14.326;2023-04-15T12:00:44;23.10;42.80
51613;DHT22;37694;51.748;14.326;2023-04-15T12:03:15;23.10;43.90
51613;DHT22;37694;51.748;14.326;2023-04-15T12:11:28;23.10;42.90
51613;DHT22;37694;51.748;14.326;2023-04-15T12:14:15;23.10;43.00
51613;DHT22;37694;51.748;14.326;2023-04-15T12:16:42;23.10;42.80
51613;DHT22;37694;51.748;14.326;2023-04-15T12:19:10;23.10;43.00
51613;DHT22;37694;51.748;14.326;2023-04-15T12:21:39;23.10;42.80
51613;DHT22;37694;51.748;14.326;2023-04-15T12:24:09;23.10;42.80
51613;DHT22;37694;51.748;14.326;2023-04-15T12:26:47;23.10;42.80
51613;DHT22;37694;51.748;14.326;2023-04-15T12:29:14;23.10;42.80
51613;DHT22;37694;51.748;14.326;2023-04-15T12:31:51;23.10;42.80
51613;DHT22;37694;51.748;14.326;2023-04-15T12:34:25;23.10;42.80
51613;DHT22;37694;51.748;14.326;2023-04-15T12:36:52;23.10;42.80
51613;DHT22;37694;51.748;14.326;2023-04-15T12:39:21;23.00;42.80
51613;DHT22;37694;51.748;14.326;2023-04-15T12:41:47;23.10;43.70
51613;DHT22;37694;51.748;14.326;2023-04-15T12:44:13;23.10;42.80
51613;DHT22;37694;51.748;14.326;2023-04-15T12:46:39;23.10;42.80
51613;DHT22;37694;51.748;14.326;2023-04-15T12:49:05;23.00;42.80
51613;DHT22;37694;51.748;14.326;2023-04-15T12:51:32;23.00;42.80
51613;DHT22;37694;51.748;14.326;2023-04-15T12:53:58;23.10;42.80
51613;DHT22;37694;51.748;14.326;2023-04-15T12:56:23;23.00;42.70
51613;DHT22;37694;51.748;14.326;2023-04-15T12:58:49;23.00;42.70
51613;DHT22;37694;51.748;14.326;2023-04-15T13:01:15;23.00;42.80
51613;DHT22;37694;51.748;14.326;2023-04-15T13:03:41;23.00;42.80
51613;DHT22;37694;51.748;14.326;2023-04-15T13:06:07;23.00;42.80
51613;DHT22;37694;51.748;14.326;2023-04-15T13:08:33;23.00;42.70
51613;DHT22;37694;51.748;14.326;2023-04-15T13:10:58;23.00;42.70
51613;DHT22;37694;51.748;14.326;2023-04-15T13:13:24;23.00;42.70
51613;DHT22;37694;51.748;14.326;2023-04-15T13:15:50;23.10;43.50
51613;DHT22;37694;51.748;14.326;2023-04-15T13:18:16;23.00;42.70
51613;DHT22;37694;51.748;14.326;2023-04-15T13:20:42;23.10;42.70
51613;DHT22;37694;51.748;14.326;2023-04-15T13:23:08;23.10;42.70
51613;DHT22;37694;51.748;14.326;2023-04-15T13:25:34;23.10;42.70
51613;DHT22;37694;51.748;14.326;2023-04-15T13:27:59;23.10;42.50
51613;DHT22;37694;51.748;14.326;2023-04-15T13:30:26;23.10;42.50
51613;DHT22;37694;51.748;14.326;2023-04-15T13:32:52;23.20;42.50
51613;DHT22;37694;51.748;14.326;2023-04-15T13:35:19;23.20;42.50
51613;DHT22;37694;51.748;14.326;2023-04-15T13:37:45;23.20;42.40
51613;DHT22;37694;51.748;14.326;2023-04-15T13:40:11;23.20;42.40
51613;DHT22;37694;51.748;14.326;2023-04-15T13:42:37;23.10;42.40
51613;DHT22;37694;51.748;14.326;2023-04-15T13:45:03;23.20;42.50
51613;DHT22;37694;51.748;14.326;2023-04-15T13:47:28;23.20;42.50
51613;DHT22;37694;51.748;14.326;2023-04-15T13:49:54;23.10;42.40
51613;DHT22;37694;51.748;14.326;2023-04-15T13:52:21;23.10;42.50
51613;DHT22;37694;51.748;14.326;2023-04-15T13:54:48;23.10;42.50
51613;DHT22;37694;51.748;14.326;2023-04-15T13:57:13;23.10;42.70
51613;DHT22;37694;51.748;14.326;2023-04-15T13:59:39;23.10;42.50
51613;DHT22;37694;51.748;14.326;2023-04-15T14:02:05;23.10;42.50
51613;DHT22;37694;51.748;14.326;2023-04-15T14:04:31;23.10;42.50
51613;DHT22;37694;51.748;14.326;2023-04-15T14:06:57;23.10;42.50
51613;DHT22;37694;51.748;14.326;2023-04-15T14:09:23;23.10;42.50
51613;DHT22;37694;51.748;14.326;2023-04-15T14:11:50;23.10;42.50
51613;DHT22;37694;51.748;14.326;2023-04-15T14:14:15;23.10;42.60
51613;DHT22;37694;51.748;14.326;2023-04-15T14:16:41;23.10;42.50
51613;DHT22;37694;51.748;14.326;2023-04-15T14:19:07;23.10;42.60
51613;DHT22;37694;51.748;14.326;2023-04-15T14:21:32;23.10;42.60
51613;DHT22;37694;51.748;14.326;2023-04-15T14:23:58;23.10;42.50
51613;DHT22;37694;51.748;14.326;2023-04-15T14:26:24;23.10;42.60
51613;DHT22;37694;51.748;14.326;2023-04-15T14:28:50;23.10;42.60
51613;DHT22;37694;51.748;14.326;2023-04-15T14:31:17;23.10;42.60
51613;DHT22;37694;51.748;14.326;2023-04-15T14:33:43;23.10;42.50
51613;DHT22;37694;51.748;14.326;2023-04-15T14:36:09;23.10;42.50
51613;DHT22;37694;51.748;14.326;2023-04-15T14:38:35;23.10;42.50
51613;DHT22;37694;51.748;14.326;2023-04-15T14:41:07;23.10;42.50
51613;DHT22;37694;51.748;14.326;2023-04-15T14:43:33;23.10;42.40
51613;DHT22;37694;51.748;14.326;2023-04-15T14:45:59;23.10;42.50
51613;DHT22;37694;51.748;14.326;2023-04-15T14:48:25;23.10;42.40
51613;DHT22;37694;51.748;14.326;2023-04-15T14:50:51;23.10;42.40
51613;DHT22;37694;51.748;14.326;2023-04-15T14:53:17;23.10;42.50
51613;DHT22;37694;51.748;14.326;2023-04-15T14:55:43;23.10;42.50
51613;DHT22;37694;51.748;14.326;2023-04-15T14:58:09;23.10;42.40
51613;DHT22;37694;51.748;14.326;2023-04-15T15:00:37;23.10;42.40
51613;DHT22;37694;51.748;14.326;2023-04-15T15:03:04;23.10;42.50
51613;DHT22;37694;51.748;14.326;2023-04-15T15:05:38;23.10;42.50
51613;DHT22;37694;51.748;14.326;2023-04-15T15:08:05;23.10;42.40
51613;DHT22;37694;51.748;14.326;2023-04-15T15:10:32;23.00;42.40
51613;DHT22;37694;51.748;14.326;2023-04-15T15:12:58;23.00;42.40
51613;DHT22;37694;51.748;14.326;2023-04-15T15:15:23;23.00;42.40
51613;DHT22;37694;51.748;14.326;2023-04-15T15:17:49;23.00;42.50
51613;DHT22;37694;51.748;14.326;2023-04-15T15:20:16;23.00;42.40
51613;DHT22;37694;51.748;14.326;2023-04-15T15:22:41;23.00;42.50
51613;DHT22;37694;51.748;14.326;2023-04-15T15:25:07;23.00;42.50
51613;DHT22;37694;51.748;14.326;2023-04-15T15:27:33;23.00;42.50